sensor_id;sensor_type;location;lat;lon;timestamp;P1;durP1;ratioP1;P2;durP2;ratioP2
9675;SDS011;4876;42.656;23.292;2022-12-22T00:02:21;50.47;;;23.30;;
9675;SDS011;4876;42.656;23.292;2022-12-22T00:05:11;49.00;;;24.20;;
9675;SDS011;4876;42.656;23.292;2022-12-22T00:07:57;41.90;;;23.30;;
9675;SDS011;4876;42.656;23.292;2022-12-22T00:10:41;44.03;;;25.03;;
9675;SDS011;4876;42.656;23.292;2022-12-22T00:13:26;43.93;;;24.30;;
9675;SDS011;4876;42.656;23.292;2022-12-22T00:16:10;46.10;;;26.03;;
9675;SDS011;4876;42.656;23.292;2022-12-22T00:18:54;54.47;;;26.90;;
9675;SDS011;4876;42.656;23.292;2022-12-22T00:21:38;46.27;;;25.37;;
9675;SDS011;4876;42.656;23.292;2022-12-22T00:24:24;55.83;;;26.57;;
9675;SDS011;4876;42.656;23.292;2022-12-22T00:27:10;52.93;;;26.77;;
9675;SDS011;4876;42.656;23.292;2022-12-22T00:29:57;55.37;;;27.90;;
9675;SDS011;4876;42.656;23.292;2022-12-22T00:32:42;51.60;;;27.77;;
9675;SDS011;4876;42.656;23.292;2022-12-22T00:35:26;52.67;;;27.57;;
9675;SDS011;4876;42.656;23.292;2022-12-22T00:38:15;54.47;;;30.73;;
9675;SDS011;4876;42.656;23.292;2022-12-22T00:41:02;50.70;;;28.63;;
9675;SDS011;4876;42.656;23.292;2022-12-22T00:43:47;49.50;;;27.40;;
9675;SDS011;4876;42.656;23.292;2022-12-22T00:46:31;53.83;;;27.87;;
9675;SDS011;4876;42.656;23.292;2022-12-22T00:49:18;53.30;;;29.00;;
9675;SDS011;4876;42.656;23.292;2022-12-22T00:52:04;84.10;;;44.47;;
9675;SDS011;4876;42.656;23.292;2022-12-22T00:54:48;60.20;;;31.50;;
9675;SDS011;4876;42.656;23.292;2022-12-22T00:57:37;72.47;;;33.57;;
9675;SDS011;4876;42.656;23.292;2022-12-22T01:00:23;68.37;;;37.87;;
9675;SDS011;4876;42.656;23.292;2022-12-22T01:03:08;108.13;;;57.50;;
9675;SDS011;4876;42.656;23.292;2022-12-22T01:05:53;106.77;;;57.30;;
9675;SDS011;4876;42.656;23.292;2022-12-22T01:08:38;69.27;;;38.77;;
9675;SDS011;4876;42.656;23.292;2022-12-22T01:11:23;89.70;;;47.53;;
9675;SDS011;4876;42.656;23.292;2022-12-22T01:14:11;80.03;;;42.10;;
9675;SDS011;4876;42.656;23.292;2022-12-22T01:16:56;85.67;;;44.97;;
9675;SDS011;4876;42.656;23.292;2022-12-22T01:19:41;73.90;;;39.30;;
9675;SDS011;4876;42.656;23.292;2022-12-22T01:22:25;62.93;;;36.53;;
9675;SDS011;4876;42.656;23.292;2022-12-22T01:25:12;67.30;;;36.47;;
9675;SDS011;4876;42.656;23.292;2022-12-22T01:27:58;71.40;;;39.13;;
9675;SDS011;4876;42.656;23.292;2022-12-22T01:30:43;78.57;;;45.17;;
9675;SDS011;4876;42.656;23.292;2022-12-22T01:33:28;80.73;;;45.37;;
9675;SDS011;4876;42.656;23.292;2022-12-22T01:36:13;99.60;;;54.90;;
9675;SDS011;4876;42.656;23.292;2022-12-22T01:38:57;101.47;;;54.23;;
9675;SDS011;4876;42.656;23.292;2022-12-22T01:41:41;90.50;;;44.90;;
9675;SDS011;4876;42.656;23.292;2022-12-22T01:44:26;81.33;;;44.60;;
9675;SDS011;4876;42.656;23.292;2022-12-22T01:50:19;74.67;;;42.73;;
9675;SDS011;4876;42.656;23.292;2022-12-22T01:53:09;74.27;;;42.03;;
9675;SDS011;4876;42.656;23.292;2022-12-22T01:55:57;81.30;;;44.20;;
9675;SDS011;4876;42.656;23.292;2022-12-22T01:58:45;74.03;;;38.30;;
9675;SDS011;4876;42.656;23.292;2022-12-22T02:01:32;69.90;;;34.40;;
9675;SDS011;4876;42.656;23.292;2022-12-22T02:04:19;63.50;;;36.67;;
9675;SDS011;4876;42.656;23.292;2022-12-22T02:07:10;81.70;;;43.73;;
9675;SDS011;4876;42.656;23.292;2022-12-22T02:10:10;76.60;;;43.83;;
9675;SDS011;4876;42.656;23.292;2022-12-22T02:13:07;68.33;;;38.60;;
9675;SDS011;4876;42.656;23.292;2022-12-22T02:16:08;70.27;;;37.83;;
9675;SDS011;4876;42.656;23.292;2022-12-22T02:18:59;57.00;;;32.70;;
9675;SDS011;4876;42.656;23.292;2022-12-22T02:21:53;55.33;;;32.20;;
9675;SDS011;4876;42.656;23.292;2022-12-22T02:24:45;60.97;;;33.90;;
9675;SDS011;4876;42.656;23.292;2022-12-22T02:27:34;63.70;;;33.77;;
9675;SDS011;4876;42.656;23.292;2022-12-22T02:30:22;60.37;;;32.43;;
9675;SDS011;4876;42.656;23.292;2022-12-22T02:33:09;57.03;;;32.17;;
9675;SDS011;4876;42.656;23.292;2022-12-22T02:35:56;57.47;;;31.63;;
9675;SDS011;4876;42.656;23.292;2022-12-22T02:38:55;56.87;;;32.57;;
9675;SDS011;4876;42.656;23.292;2022-12-22T02:41:53;51.43;;;32.50;;
9675;SDS011;4876;42.656;23.292;2022-12-22T02:44:50;59.63;;;31.60;;
9675;SDS011;4876;42.656;23.292;2022-12-22T02:47:45;56.03;;;32.70;;
9675;SDS011;4876;42.656;23.292;2022-12-22T02:50:33;60.27;;;32.50;;
9675;SDS011;4876;42.656;23.292;2022-12-22T02:53:22;55.33;;;31.10;;
9675;SDS011;4876;42.656;23.292;2022-12-22T02:56:08;55.87;;;30.90;;
9675;SDS011;4876;42.656;23.292;2022-12-22T02:58:53;56.20;;;30.53;;
9675;SDS011;4876;42.656;23.292;2022-12-22T03:01:40;50.17;;;28.27;;
9675;SDS011;4876;42.656;23.292;2022-12-22T03:04:26;51.77;;;29.67;;
9675;SDS011;4876;42.656;23.292;2022-12-22T03:07:11;55.03;;;30.13;;
9675;SDS011;4876;42.656;23.292;2022-12-22T03:09:55;55.13;;;29.63;;
9675;SDS011;4876;42.656;23.292;2022-12-22T03:12:39;50.77;;;29.30;;
9675;SDS011;4876;42.656;23.292;2022-12-22T03:15:25;47.63;;;28.43;;
9675;SDS011;4876;42.656;23.292;2022-12-22T03:18:11;47.47;;;30.10;;
9675;SDS011;4876;42.656;23.292;2022-12-22T03:20:56;54.67;;;28.87;;
9675;SDS011;4876;42.656;23.292;2022-12-22T03:23:41;54.87;;;31.17;;
9675;SDS011;4876;42.656;23.292;2022-12-22T03:26:26;54.07;;;29.43;;
9675;SDS011;4876;42.656;23.292;2022-12-22T03:28:53;52.37;;;28.77;;
9675;SDS011;4876;42.656;23.292;2022-12-22T03:31:20;47.63;;;28.33;;
9675;SDS011;4876;42.656;23.292;2022-12-22T03:33:48;52.33;;;29.77;;
9675;SDS011;4876;42.656;23.292;2022-12-22T03:36:15;59.37;;;32.77;;
9675;SDS011;4876;42.656;23.292;2022-12-22T03:38:42;68.03;;;34.30;;
9675;SDS011;4876;42.656;23.292;2022-12-22T03:41:08;62.20;;;33.27;;
9675;SDS011;4876;42.656;23.292;2022-12-22T03:43:56;63.17;;;34.70;;
9675;SDS011;4876;42.656;23.292;2022-12-22T03:46:40;56.00;;;30.00;;
9675;SDS011;4876;42.656;23.292;2022-12-22T03:49:08;69.00;;;29.63;;
9675;SDS011;4876;42.656;23.292;2022-12-22T03:51:35;64.73;;;31.07;;
9675;SDS011;4876;42.656;23.292;2022-12-22T03:54:04;64.37;;;33.63;;
9675;SDS011;4876;42.656;23.292;2022-12-22T03:56:31;60.27;;;34.37;;
9675;SDS011;4876;42.656;23.292;2022-12-22T03:58:58;53.17;;;31.60;;
9675;SDS011;4876;42.656;23.292;2022-12-22T04:01:25;54.43;;;31.50;;
9675;SDS011;4876;42.656;23.292;2022-12-22T04:03:52;54.03;;;32.47;;
9675;SDS011;4876;42.656;23.292;2022-12-22T04:06:20;70.73;;;33.10;;
9675;SDS011;4876;42.656;23.292;2022-12-22T04:08:47;54.20;;;34.23;;
9675;SDS011;4876;42.656;23.292;2022-12-22T04:11:14;54.00;;;30.60;;
9675;SDS011;4876;42.656;23.292;2022-12-22T04:13:59;49.60;;;28.10;;
9675;SDS011;4876;42.656;23.292;2022-12-22T04:16:27;51.03;;;28.27;;
9675;SDS011;4876;42.656;23.292;2022-12-22T04:18:53;46.63;;;27.40;;
9675;SDS011;4876;42.656;23.292;2022-12-22T04:21:22;60.70;;;29.60;;
9675;SDS011;4876;42.656;23.292;2022-12-22T04:23:49;51.43;;;28.87;;
9675;SDS011;4876;42.656;23.292;2022-12-22T04:26:16;65.97;;;31.30;;
9675;SDS011;4876;42.656;23.292;2022-12-22T04:28:43;58.50;;;29.23;;
9675;SDS011;4876;42.656;23.292;2022-12-22T04:31:10;46.03;;;26.00;;
9675;SDS011;4876;42.656;23.292;2022-12-22T04:33:37;49.37;;;26.67;;
9675;SDS011;4876;42.656;23.292;2022-12-22T04:36:04;45.33;;;27.47;;
9675;SDS011;4876;42.656;23.292;2022-12-22T04:38:33;50.17;;;27.83;;
9675;SDS011;4876;42.656;23.292;2022-12-22T04:41:00;46.97;;;26.70;;
9675;SDS011;4876;42.656;23.292;2022-12-22T04:43:27;47.73;;;26.93;;
9675;SDS011;4876;42.656;23.292;2022-12-22T04:45:54;58.83;;;32.00;;
9675;SDS011;4876;42.656;23.292;2022-12-22T04:48:21;57.27;;;31.37;;
9675;SDS011;4876;42.656;23.292;2022-12-22T04:50:49;56.87;;;30.80;;
9675;SDS011;4876;42.656;23.292;2022-12-22T04:53:17;53.53;;;28.13;;
9675;SDS011;4876;42.656;23.292;2022-12-22T04:55:45;54.03;;;28.60;;
9675;SDS011;4876;42.656;23.292;2022-12-22T04:58:12;52.43;;;30.67;;
9675;SDS011;4876;42.656;23.292;2022-12-22T05:00:39;54.67;;;31.93;;
9675;SDS011;4876;42.656;23.292;2022-12-22T05:03:06;62.10;;;33.77;;
9675;SDS011;4876;42.656;23.292;2022-12-22T05:05:33;61.77;;;35.00;;
9675;SDS011;4876;42.656;23.292;2022-12-22T05:08:02;55.13;;;32.10;;
9675;SDS011;4876;42.656;23.292;2022-12-22T05:10:30;54.87;;;30.33;;
9675;SDS011;4876;42.656;23.292;2022-12-22T05:12:58;56.60;;;31.97;;
9675;SDS011;4876;42.656;23.292;2022-12-22T05:15:26;65.60;;;36.83;;
9675;SDS011;4876;42.656;23.292;2022-12-22T05:17:54;64.17;;;38.57;;
9675;SDS011;4876;42.656;23.292;2022-12-22T05:20:22;62.93;;;37.50;;
9675;SDS011;4876;42.656;23.292;2022-12-22T05:22:49;67.03;;;38.73;;
9675;SDS011;4876;42.656;23.292;2022-12-22T05:25:16;67.20;;;36.93;;
9675;SDS011;4876;42.656;23.292;2022-12-22T05:27:44;62.37;;;36.30;;
9675;SDS011;4876;42.656;23.292;2022-12-22T05:30:13;76.70;;;36.87;;
9675;SDS011;4876;42.656;23.292;2022-12-22T05:32:42;62.93;;;35.40;;
9675;SDS011;4876;42.656;23.292;2022-12-22T05:35:09;62.63;;;34.03;;
9675;SDS011;4876;42.656;23.292;2022-12-22T05:37:36;60.73;;;33.90;;
9675;SDS011;4876;42.656;23.292;2022-12-22T05:40:03;72.00;;;34.63;;
9675;SDS011;4876;42.656;23.292;2022-12-22T05:42:30;65.50;;;35.43;;
9675;SDS011;4876;42.656;23.292;2022-12-22T05:45:08;70.50;;;39.43;;
9675;SDS011;4876;42.656;23.292;2022-12-22T05:47:40;67.03;;;37.80;;
9675;SDS011;4876;42.656;23.292;2022-12-22T05:50:08;67.47;;;39.67;;
9675;SDS011;4876;42.656;23.292;2022-12-22T05:52:36;76.60;;;43.40;;
9675;SDS011;4876;42.656;23.292;2022-12-22T05:55:03;71.80;;;34.50;;
9675;SDS011;4876;42.656;23.292;2022-12-22T05:57:31;73.53;;;37.60;;
9675;SDS011;4876;42.656;23.292;2022-12-22T05:59:58;59.87;;;36.30;;
9675;SDS011;4876;42.656;23.292;2022-12-22T06:02:25;74.00;;;36.93;;
9675;SDS011;4876;42.656;23.292;2022-12-22T06:04:53;70.20;;;36.97;;
9675;SDS011;4876;42.656;23.292;2022-12-22T06:07:20;65.23;;;37.30;;
9675;SDS011;4876;42.656;23.292;2022-12-22T06:09:47;67.43;;;37.40;;
9675;SDS011;4876;42.656;23.292;2022-12-22T06:12:13;72.63;;;38.90;;
9675;SDS011;4876;42.656;23.292;2022-12-22T06:14:40;65.33;;;37.77;;
9675;SDS011;4876;42.656;23.292;2022-12-22T06:17:07;79.83;;;36.73;;
9675;SDS011;4876;42.656;23.292;2022-12-22T06:19:34;64.80;;;36.00;;
9675;SDS011;4876;42.656;23.292;2022-12-22T06:22:02;71.37;;;38.07;;
9675;SDS011;4876;42.656;23.292;2022-12-22T06:24:29;72.87;;;42.47;;
9675;SDS011;4876;42.656;23.292;2022-12-22T06:26:56;73.50;;;38.23;;
9675;SDS011;4876;42.656;23.292;2022-12-22T06:29:23;75.33;;;44.77;;
9675;SDS011;4876;42.656;23.292;2022-12-22T06:31:50;98.83;;;39.17;;
9675;SDS011;4876;42.656;23.292;2022-12-22T06:34:17;71.07;;;38.57;;
9675;SDS011;4876;42.656;23.292;2022-12-22T06:36:44;68.50;;;39.63;;
9675;SDS011;4876;42.656;23.292;2022-12-22T06:39:13;80.47;;;40.27;;
9675;SDS011;4876;42.656;23.292;2022-12-22T06:41:41;87.90;;;46.80;;
9675;SDS011;4876;42.656;23.292;2022-12-22T06:44:25;88.93;;;49.80;;
9675;SDS011;4876;42.656;23.292;2022-12-22T06:46:52;113.77;;;59.37;;
9675;SDS011;4876;42.656;23.292;2022-12-22T06:49:19;103.40;;;55.80;;
9675;SDS011;4876;42.656;23.292;2022-12-22T06:51:46;110.30;;;58.53;;
9675;SDS011;4876;42.656;23.292;2022-12-22T06:54:15;100.73;;;58.10;;
9675;SDS011;4876;42.656;23.292;2022-12-22T06:56:42;102.20;;;56.20;;
9675;SDS011;4876;42.656;23.292;2022-12-22T06:59:08;100.47;;;56.40;;
9675;SDS011;4876;42.656;23.292;2022-12-22T07:01:35;98.07;;;56.07;;
9675;SDS011;4876;42.656;23.292;2022-12-22T07:04:02;111.40;;;56.80;;
9675;SDS011;4876;42.656;23.292;2022-12-22T07:06:29;98.27;;;54.40;;
9675;SDS011;4876;42.656;23.292;2022-12-22T07:08:56;102.50;;;54.80;;
9675;SDS011;4876;42.656;23.292;2022-12-22T07:11:24;96.97;;;53.90;;
9675;SDS011;4876;42.656;23.292;2022-12-22T07:13:51;106.13;;;54.30;;
9675;SDS011;4876;42.656;23.292;2022-12-22T07:16:18;98.70;;;51.17;;
9675;SDS011;4876;42.656;23.292;2022-12-22T07:18:44;97.90;;;53.17;;
9675;SDS011;4876;42.656;23.292;2022-12-22T07:21:12;106.63;;;53.23;;
9675;SDS011;4876;42.656;23.292;2022-12-22T07:23:40;106.33;;;55.27;;
9675;SDS011;4876;42.656;23.292;2022-12-22T07:26:07;112.70;;;54.77;;
9675;SDS011;4876;42.656;23.292;2022-12-22T07:28:36;107.47;;;56.27;;
9675;SDS011;4876;42.656;23.292;2022-12-22T07:31:05;92.40;;;53.73;;
9675;SDS011;4876;42.656;23.292;2022-12-22T07:33:32;104.87;;;56.13;;
9675;SDS011;4876;42.656;23.292;2022-12-22T07:36:00;110.20;;;56.67;;
9675;SDS011;4876;42.656;23.292;2022-12-22T07:38:30;118.27;;;57.43;;
9675;SDS011;4876;42.656;23.292;2022-12-22T07:40:57;120.77;;;60.80;;
9675;SDS011;4876;42.656;23.292;2022-12-22T07:43:24;125.90;;;62.50;;
9675;SDS011;4876;42.656;23.292;2022-12-22T07:45:51;124.30;;;65.97;;
9675;SDS011;4876;42.656;23.292;2022-12-22T07:48:18;116.67;;;64.37;;
9675;SDS011;4876;42.656;23.292;2022-12-22T07:51:03;114.23;;;63.73;;
9675;SDS011;4876;42.656;23.292;2022-12-22T07:53:31;116.27;;;65.20;;
9675;SDS011;4876;42.656;23.292;2022-12-22T07:56:02;122.73;;;69.57;;
9675;SDS011;4876;42.656;23.292;2022-12-22T07:58:30;112.93;;;66.13;;
9675;SDS011;4876;42.656;23.292;2022-12-22T08:00:59;116.73;;;64.37;;
9675;SDS011;4876;42.656;23.292;2022-12-22T08:03:26;121.13;;;66.17;;
9675;SDS011;4876;42.656;23.292;2022-12-22T08:05:53;117.20;;;63.73;;
9675;SDS011;4876;42.656;23.292;2022-12-22T08:08:20;119.37;;;65.13;;
9675;SDS011;4876;42.656;23.292;2022-12-22T08:10:47;99.73;;;56.70;;
9675;SDS011;4876;42.656;23.292;2022-12-22T08:13:14;100.00;;;56.80;;
9675;SDS011;4876;42.656;23.292;2022-12-22T08:15:41;97.33;;;55.10;;
9675;SDS011;4876;42.656;23.292;2022-12-22T08:18:09;101.47;;;57.10;;
9675;SDS011;4876;42.656;23.292;2022-12-22T08:20:36;103.47;;;54.10;;
9675;SDS011;4876;42.656;23.292;2022-12-22T08:23:03;94.30;;;52.60;;
9675;SDS011;4876;42.656;23.292;2022-12-22T08:25:30;91.97;;;51.97;;
9675;SDS011;4876;42.656;23.292;2022-12-22T08:27:59;86.20;;;50.80;;
9675;SDS011;4876;42.656;23.292;2022-12-22T08:30:27;106.83;;;54.07;;
9675;SDS011;4876;42.656;23.292;2022-12-22T08:32:54;94.20;;;49.77;;
9675;SDS011;4876;42.656;23.292;2022-12-22T08:35:22;86.40;;;50.57;;
9675;SDS011;4876;42.656;23.292;2022-12-22T08:37:49;94.63;;;46.30;;
9675;SDS011;4876;42.656;23.292;2022-12-22T08:40:18;85.97;;;50.10;;
9675;SDS011;4876;42.656;23.292;2022-12-22T08:42:48;98.93;;;54.03;;
9675;SDS011;4876;42.656;23.292;2022-12-22T08:45:18;107.60;;;55.13;;
9675;SDS011;4876;42.656;23.292;2022-12-22T08:47:44;103.17;;;57.10;;
9675;SDS011;4876;42.656;23.292;2022-12-22T08:50:11;101.33;;;56.20;;
9675;SDS011;4876;42.656;23.292;2022-12-22T08:52:39;107.73;;;57.10;;
9675;SDS011;4876;42.656;23.292;2022-12-22T08:55:07;95.27;;;55.00;;
9675;SDS011;4876;42.656;23.292;2022-12-22T08:57:34;100.80;;;58.10;;
9675;SDS011;4876;42.656;23.292;2022-12-22T09:00:02;95.13;;;59.80;;
9675;SDS011;4876;42.656;23.292;2022-12-22T09:02:30;103.57;;;56.57;;
9675;SDS011;4876;42.656;23.292;2022-12-22T09:04:57;104.20;;;53.10;;
9675;SDS011;4876;42.656;23.292;2022-12-22T09:07:24;90.90;;;50.73;;
9675;SDS011;4876;42.656;23.292;2022-12-22T09:09:52;101.47;;;54.00;;
9675;SDS011;4876;42.656;23.292;2022-12-22T09:12:21;98.03;;;53.93;;
9675;SDS011;4876;42.656;23.292;2022-12-22T09:14:48;87.63;;;53.80;;
9675;SDS011;4876;42.656;23.292;2022-12-22T09:17:15;91.50;;;52.13;;
9675;SDS011;4876;42.656;23.292;2022-12-22T09:19:42;82.97;;;49.43;;
9675;SDS011;4876;42.656;23.292;2022-12-22T09:22:08;97.33;;;51.73;;
9675;SDS011;4876;42.656;23.292;2022-12-22T09:24:36;85.03;;;48.53;;
9675;SDS011;4876;42.656;23.292;2022-12-22T09:27:04;79.93;;;47.90;;
9675;SDS011;4876;42.656;23.292;2022-12-22T09:29:33;85.70;;;47.77;;
9675;SDS011;4876;42.656;23.292;2022-12-22T09:32:01;79.50;;;46.43;;
9675;SDS011;4876;42.656;23.292;2022-12-22T09:34:28;91.60;;;48.30;;
9675;SDS011;4876;42.656;23.292;2022-12-22T09:36:55;77.67;;;49.93;;
9675;SDS011;4876;42.656;23.292;2022-12-22T09:39:22;91.47;;;49.90;;
9675;SDS011;4876;42.656;23.292;2022-12-22T09:41:49;91.37;;;52.27;;
9675;SDS011;4876;42.656;23.292;2022-12-22T09:44:21;84.30;;;51.30;;
9675;SDS011;4876;42.656;23.292;2022-12-22T09:46:50;85.00;;;49.60;;
9675;SDS011;4876;42.656;23.292;2022-12-22T09:49:18;83.33;;;46.63;;
9675;SDS011;4876;42.656;23.292;2022-12-22T09:51:47;84.57;;;46.77;;
9675;SDS011;4876;42.656;23.292;2022-12-22T09:54:17;84.50;;;48.37;;
9675;SDS011;4876;42.656;23.292;2022-12-22T09:56:43;103.47;;;49.77;;
9675;SDS011;4876;42.656;23.292;2022-12-22T09:59:11;84.03;;;46.20;;
9675;SDS011;4876;42.656;23.292;2022-12-22T10:01:56;79.70;;;47.00;;
9675;SDS011;4876;42.656;23.292;2022-12-22T10:04:34;81.87;;;48.40;;
9675;SDS011;4876;42.656;23.292;2022-12-22T10:07:23;86.20;;;50.47;;
9675;SDS011;4876;42.656;23.292;2022-12-22T10:09:55;91.20;;;49.63;;
9675;SDS011;4876;42.656;23.292;2022-12-22T10:12:23;93.77;;;50.13;;
9675;SDS011;4876;42.656;23.292;2022-12-22T10:14:52;94.43;;;51.23;;
9675;SDS011;4876;42.656;23.292;2022-12-22T10:17:22;89.50;;;52.97;;
9675;SDS011;4876;42.656;23.292;2022-12-22T10:19:53;86.77;;;52.60;;
9675;SDS011;4876;42.656;23.292;2022-12-22T10:22:32;100.13;;;55.30;;
9675;SDS011;4876;42.656;23.292;2022-12-22T10:25:02;98.00;;;55.30;;
9675;SDS011;4876;42.656;23.292;2022-12-22T10:27:32;100.47;;;54.73;;
9675;SDS011;4876;42.656;23.292;2022-12-22T10:30:18;102.00;;;54.27;;
9675;SDS011;4876;42.656;23.292;2022-12-22T10:33:01;88.50;;;55.30;;
9675;SDS011;4876;42.656;23.292;2022-12-22T10:38:15;91.00;;;56.00;;
9675;SDS011;4876;42.656;23.292;2022-12-22T10:40:46;105.87;;;55.10;;
9675;SDS011;4876;42.656;23.292;2022-12-22T10:43:18;89.97;;;54.93;;
9675;SDS011;4876;42.656;23.292;2022-12-22T10:45:48;93.15;;;57.55;;
9675;SDS011;4876;42.656;23.292;2022-12-22T10:48:18;88.20;;;54.13;;
9675;SDS011;4876;42.656;23.292;2022-12-22T10:50:51;93.53;;;54.93;;
9675;SDS011;4876;42.656;23.292;2022-12-22T10:53:18;100.10;;;55.13;;
9675;SDS011;4876;42.656;23.292;2022-12-22T10:55:45;97.00;;;54.87;;
9675;SDS011;4876;42.656;23.292;2022-12-22T10:58:14;98.23;;;55.23;;
9675;SDS011;4876;42.656;23.292;2022-12-22T11:00:42;94.50;;;56.90;;
9675;SDS011;4876;42.656;23.292;2022-12-22T11:03:10;91.97;;;55.70;;
9675;SDS011;4876;42.656;23.292;2022-12-22T11:05:40;99.30;;;55.60;;
9675;SDS011;4876;42.656;23.292;2022-12-22T11:08:13;97.47;;;55.03;;
9675;SDS011;4876;42.656;23.292;2022-12-22T11:10:42;89.50;;;54.30;;
9675;SDS011;4876;42.656;23.292;2022-12-22T11:13:22;84.37;;;53.70;;
9675;SDS011;4876;42.656;23.292;2022-12-22T11:16:07;99.83;;;55.80;;
9675;SDS011;4876;42.656;23.292;2022-12-22T11:18:46;95.83;;;55.40;;
9675;SDS011;4876;42.656;23.292;2022-12-22T11:21:25;111.73;;;55.97;;
9675;SDS011;4876;42.656;23.292;2022-12-22T11:24:05;96.83;;;55.17;;
9675;SDS011;4876;42.656;23.292;2022-12-22T11:26:40;89.27;;;54.67;;
9675;SDS011;4876;42.656;23.292;2022-12-22T11:29:26;81.73;;;50.87;;
9675;SDS011;4876;42.656;23.292;2022-12-22T11:32:12;88.00;;;52.60;;
9675;SDS011;4876;42.656;23.292;2022-12-22T11:34:55;92.83;;;54.40;;
9675;SDS011;4876;42.656;23.292;2022-12-22T11:37:33;87.50;;;50.63;;
9675;SDS011;4876;42.656;23.292;2022-12-22T11:40:10;93.63;;;50.67;;
9675;SDS011;4876;42.656;23.292;2022-12-22T11:42:52;92.63;;;51.40;;
9675;SDS011;4876;42.656;23.292;2022-12-22T11:45:39;89.80;;;50.20;;
9675;SDS011;4876;42.656;23.292;2022-12-22T11:51:22;86.10;;;50.73;;
9675;SDS011;4876;42.656;23.292;2022-12-22T11:54:20;87.93;;;51.47;;
9675;SDS011;4876;42.656;23.292;2022-12-22T11:57:09;86.27;;;48.80;;
9675;SDS011;4876;42.656;23.292;2022-12-22T11:59:44;85.47;;;51.07;;
9675;SDS011;4876;42.656;23.292;2022-12-22T12:05:22;88.80;;;50.07;;
9675;SDS011;4876;42.656;23.292;2022-12-22T12:08:02;79.87;;;46.77;;
9675;SDS011;4876;42.656;23.292;2022-12-22T12:10:41;78.67;;;50.47;;
9675;SDS011;4876;42.656;23.292;2022-12-22T12:13:13;82.13;;;49.20;;
9675;SDS011;4876;42.656;23.292;2022-12-22T12:15:51;91.60;;;50.00;;
9675;SDS011;4876;42.656;23.292;2022-12-22T12:18:34;88.23;;;48.67;;
9675;SDS011;4876;42.656;23.292;2022-12-22T12:21:17;84.60;;;50.73;;
9675;SDS011;4876;42.656;23.292;2022-12-22T12:26:48;77.20;;;46.93;;
9675;SDS011;4876;42.656;23.292;2022-12-22T12:29:24;73.67;;;49.30;;
9675;SDS011;4876;42.656;23.292;2022-12-22T12:31:55;83.17;;;50.10;;
9675;SDS011;4876;42.656;23.292;2022-12-22T12:34:28;82.33;;;49.03;;
9675;SDS011;4876;42.656;23.292;2022-12-22T12:37:00;87.07;;;51.77;;
9675;SDS011;4876;42.656;23.292;2022-12-22T12:39:32;93.17;;;49.47;;
9675;SDS011;4876;42.656;23.292;2022-12-22T12:42:14;88.93;;;51.87;;
9675;SDS011;4876;42.656;23.292;2022-12-22T12:44:51;86.40;;;51.43;;
9675;SDS011;4876;42.656;23.292;2022-12-22T12:47:20;87.43;;;51.70;;
9675;SDS011;4876;42.656;23.292;2022-12-22T12:49:53;89.87;;;50.37;;
9675;SDS011;4876;42.656;23.292;2022-12-22T12:55:30;87.83;;;51.70;;
9675;SDS011;4876;42.656;23.292;2022-12-22T12:58:00;84.13;;;51.80;;
9675;SDS011;4876;42.656;23.292;2022-12-22T13:00:42;88.67;;;54.43;;
9675;SDS011;4876;42.656;23.292;2022-12-22T13:03:34;104.73;;;53.50;;
9675;SDS011;4876;42.656;23.292;2022-12-22T13:06:04;91.80;;;52.70;;
9675;SDS011;4876;42.656;23.292;2022-12-22T13:08:32;89.83;;;52.43;;
9675;SDS011;4876;42.656;23.292;2022-12-22T13:11:43;101.87;;;54.03;;
9675;SDS011;4876;42.656;23.292;2022-12-22T13:14:11;80.70;;;51.83;;
9675;SDS011;4876;42.656;23.292;2022-12-22T13:17:32;87.37;;;49.00;;
9675;SDS011;4876;42.656;23.292;2022-12-22T13:19:59;93.90;;;46.23;;
9675;SDS011;4876;42.656;23.292;2022-12-22T13:22:27;94.83;;;43.20;;
9675;SDS011;4876;42.656;23.292;2022-12-22T13:24:54;77.73;;;41.10;;
9675;SDS011;4876;42.656;23.292;2022-12-22T13:27:22;94.23;;;40.63;;
9675;SDS011;4876;42.656;23.292;2022-12-22T13:29:52;104.90;;;39.97;;
9675;SDS011;4876;42.656;23.292;2022-12-22T13:32:21;97.47;;;39.93;;
9675;SDS011;4876;42.656;23.292;2022-12-22T13:37:40;102.23;;;37.73;;
9675;SDS011;4876;42.656;23.292;2022-12-22T13:40:10;109.63;;;37.70;;
9675;SDS011;4876;42.656;23.292;2022-12-22T13:42:40;86.53;;;35.67;;
9675;SDS011;4876;42.656;23.292;2022-12-22T13:45:13;72.83;;;35.87;;
9675;SDS011;4876;42.656;23.292;2022-12-22T13:47:44;91.13;;;33.53;;
9675;SDS011;4876;42.656;23.292;2022-12-22T13:50:17;74.03;;;34.23;;
9675;SDS011;4876;42.656;23.292;2022-12-22T13:52:46;60.90;;;33.90;;
9675;SDS011;4876;42.656;23.292;2022-12-22T13:55:15;104.83;;;34.40;;
9675;SDS011;4876;42.656;23.292;2022-12-22T13:57:46;79.13;;;34.57;;
9675;SDS011;4876;42.656;23.292;2022-12-22T14:00:18;79.27;;;32.87;;
9675;SDS011;4876;42.656;23.292;2022-12-22T14:02:47;86.27;;;33.77;;
9675;SDS011;4876;42.656;23.292;2022-12-22T14:05:14;81.50;;;35.47;;
9675;SDS011;4876;42.656;23.292;2022-12-22T14:10:25;75.03;;;34.87;;
9675;SDS011;4876;42.656;23.292;2022-12-22T14:12:53;66.47;;;33.97;;
9675;SDS011;4876;42.656;23.292;2022-12-22T14:15:22;77.07;;;32.63;;
9675;SDS011;4876;42.656;23.292;2022-12-22T14:17:48;76.07;;;31.67;;
9675;SDS011;4876;42.656;23.292;2022-12-22T14:20:16;60.13;;;30.73;;
9675;SDS011;4876;42.656;23.292;2022-12-22T14:22:48;57.97;;;32.17;;
9675;SDS011;4876;42.656;23.292;2022-12-22T14:25:19;74.30;;;31.47;;
9675;SDS011;4876;42.656;23.292;2022-12-22T14:27:51;67.27;;;30.93;;
9675;SDS011;4876;42.656;23.292;2022-12-22T14:30:20;65.87;;;28.83;;
9675;SDS011;4876;42.656;23.292;2022-12-22T14:32:50;71.20;;;31.73;;
9675;SDS011;4876;42.656;23.292;2022-12-22T14:35:26;65.27;;;31.33;;
9675;SDS011;4876;42.656;23.292;2022-12-22T14:38:06;74.63;;;38.67;;
9675;SDS011;4876;42.656;23.292;2022-12-22T14:40:42;66.57;;;35.10;;
9675;SDS011;4876;42.656;23.292;2022-12-22T14:43:13;63.90;;;34.63;;
9675;SDS011;4876;42.656;23.292;2022-12-22T14:45:58;80.57;;;37.07;;
9675;SDS011;4876;42.656;23.292;2022-12-22T14:48:29;69.27;;;35.87;;
9675;SDS011;4876;42.656;23.292;2022-12-22T14:50:58;72.93;;;38.27;;
9675;SDS011;4876;42.656;23.292;2022-12-22T14:53:29;82.60;;;35.97;;
9675;SDS011;4876;42.656;23.292;2022-12-22T14:56:02;72.50;;;32.47;;
9675;SDS011;4876;42.656;23.292;2022-12-22T14:58:30;66.37;;;32.97;;
9675;SDS011;4876;42.656;23.292;2022-12-22T15:01:14;81.73;;;32.67;;
9675;SDS011;4876;42.656;23.292;2022-12-22T15:03:45;78.87;;;32.63;;
9675;SDS011;4876;42.656;23.292;2022-12-22T15:06:30;78.77;;;31.07;;
9675;SDS011;4876;42.656;23.292;2022-12-22T15:11:51;75.57;;;34.80;;
9675;SDS011;4876;42.656;23.292;2022-12-22T15:14:22;77.63;;;36.90;;
9675;SDS011;4876;42.656;23.292;2022-12-22T15:16:54;82.00;;;33.40;;
9675;SDS011;4876;42.656;23.292;2022-12-22T15:19:24;91.93;;;32.50;;
9675;SDS011;4876;42.656;23.292;2022-12-22T15:21:55;99.47;;;30.93;;
9675;SDS011;4876;42.656;23.292;2022-12-22T15:24:22;92.20;;;30.80;;
9675;SDS011;4876;42.656;23.292;2022-12-22T15:26:49;70.33;;;31.53;;
9675;SDS011;4876;42.656;23.292;2022-12-22T15:29:16;108.93;;;33.67;;
9675;SDS011;4876;42.656;23.292;2022-12-22T15:31:43;89.37;;;35.27;;
9675;SDS011;4876;42.656;23.292;2022-12-22T15:34:12;71.73;;;35.03;;
9675;SDS011;4876;42.656;23.292;2022-12-22T15:36:41;94.73;;;34.20;;
9675;SDS011;4876;42.656;23.292;2022-12-22T15:39:11;69.00;;;33.33;;
9675;SDS011;4876;42.656;23.292;2022-12-22T15:41:41;89.93;;;32.43;;